Airfield :
LOGIN :

Register | Disclaimer

   EN    FR    IT 

 










Legend :    VFR   Marginal VFR   IFR   Intensive IFR   Very Intensive IFR
Visi :
Ceiling :
>= 8 km
>= 3000ft
5 to 8 km
1000 to 3000 ft
1500m to 5 km
500 to 1000 ft
800 to 1500m
200 to 500 ft
< 800m
< 200 ft
Symbols :   Thunderstorms  Fog  Heavy snow  Heavy precipitations  Wind > 20 kt
SIGMETs :     Misc.  Thunderstorms  Icing  Turbulence  Mountain Waves  Volcanic Ashes






- Airport Elevation : 400 ft
- IATA code : BNX


LQBK - Banja Luka

CURRENT METAR :
  • 221300Z 36005KT 330V060 9999 FEW047 26/15 Q1013 NOSIG

EXPIRED METARs :
  • 221230Z VRB03KT 9999 FEW047 25/15 Q1013 NOSIG
  • 221200Z 04006KT 340V090 9999 FEW047 24/15 Q1013 NOSIG
  • 221130Z VRB05KT 9999 FEW045 24/17 Q1014 NOSIG
  • 221100Z VRB04KT 9999 FEW045 24/16 Q1014 NOSIG
  • 221030Z VRB03KT 9999 FEW045 24/16 Q1014 NOSIG

TAF TAF LQBK
Valid from the 22 at 12:00 until the 23 at 12:00 UTC


221100Z 2212/2312 06005KT CAVOK TX27/2214Z TN14/2303Z
PROB30
TEMPO 2302/2306 SHRA FEW035TCU BKN040



MET'MAP, your aeronautical weather chart ! - Copyright ORBIFLY December 2007 - Disclaimer

ORBIFLY MET'MAP TEAM :

Programming & Development : Alexandra Zaïnal
Original concept : Baudouin d'Aumeries
Technical & hardware support : Manuel Goepfert
Assistance : Marc-Olivier Méhu

Contact : metmap@orbifly.com




SOURCES & CREDITS :

   NOAA